Time;durP1;ratioP1;P1;durP2;ratioP2;P2;SDS_P1;SDS_P2;PMS_P1;PMS_P2;Temp;Humidity;BMP_temperature;BMP_pressure;BME280_temperature;BME280_humidity;BME280_pressure;Samples;Min_cycle;Max_cycle;Signal;HPM_P1;HPM_P2
2022/04/29 00:00:18;;;;;;;2.67;2.47;;;;;;;4.90;76.79;98777.75;6178669;28;20234;-41
2022/04/29 00:03:21;;;;;;;4.43;2.60;;;;;;;4.82;77.30;98788.53;6180969;28;20229;-40
2022/04/29 00:06:23;;;;;;;5.37;3.00;;;;;;;4.76;77.77;98786.16;6180673;28;20723;-40
2022/04/29 00:09:26;;;;;;;4.53;2.70;;;;;;;4.69;77.36;98782.09;6181877;28;20998;-40
2022/04/29 00:12:28;;;;;;;2.90;2.40;;;;;;;4.63;77.62;98791.00;6181123;28;20225;-42
2022/04/29 00:15:31;;;;;;;3.20;2.70;;;;;;;4.57;77.57;98791.25;6179243;28;21071;-40
2022/04/29 00:18:33;;;;;;;3.10;2.80;;;;;;;4.49;77.81;98787.25;6180225;28;20344;-41
2022/04/29 00:21:35;;;;;;;4.80;2.70;;;;;;;4.42;78.52;98781.38;6179798;28;20608;-40
2022/04/29 00:24:37;;;;;;;3.30;2.70;;;;;;;4.34;78.13;98779.06;6197790;28;20698;-40
2022/04/29 00:27:41;;;;;;;3.67;2.40;;;;;;;4.26;78.29;98788.09;6190204;28;20240;-41
2022/04/29 00:30:43;;;;;;;5.03;2.83;;;;;;;4.18;77.92;98787.53;6180901;28;20728;-42
2022/04/29 00:33:45;;;;;;;2.97;2.70;;;;;;;4.11;78.87;98788.66;6179559;28;20240;-40
2022/04/29 00:36:47;;;;;;;3.93;2.53;;;;;;;4.03;78.43;98791.53;6179899;28;20321;-40
2022/04/29 00:39:49;;;;;;;4.23;2.50;;;;;;;3.96;78.35;98780.47;6179916;28;20244;-40
2022/04/29 00:42:52;;;;;;;3.63;2.43;;;;;;;3.90;79.12;98783.28;6179618;28;20252;-42
2022/04/29 00:45:54;;;;;;;3.90;2.70;;;;;;;3.82;78.84;98782.72;6178819;28;20237;-40
2022/04/29 00:48:56;;;;;;;3.70;2.97;;;;;;;3.76;79.54;98788.16;6179785;28;20326;-40
2022/04/29 00:51:58;;;;;;;3.33;3.00;;;;;;;3.69;79.44;98782.28;6180012;28;20262;-40
2022/04/29 00:55:06;;;;;;;4.37;2.90;;;;;;;3.64;79.30;98785.97;6185978;28;20633;-41
2022/04/29 00:58:17;;;;;;;3.97;3.30;;;;;;;3.54;79.42;98782.84;6179386;28;20278;-41
2022/04/29 01:01:50;;;;;;;3.87;3.03;;;;;;;3.48;80.11;98777.00;6178177;28;20719;-43
2022/04/29 01:05:07;;;;;;;4.33;3.10;;;;;;;3.41;79.72;98784.16;6177016;28;20248;-42
2022/04/29 01:08:11;;;;;;;5.23;3.07;;;;;;;3.33;80.14;98781.81;6179479;28;20231;-42
2022/04/29 01:11:13;;;;;;;5.47;2.80;;;;;;;3.29;80.16;98780.19;6178459;28;20300;-42
2022/04/29 01:14:16;;;;;;;7.77;3.23;;;;;;;3.24;80.56;98774.28;6177245;28;20235;-43
2022/04/29 01:17:19;;;;;;;4.17;3.03;;;;;;;3.21;80.38;98770.94;6177143;28;20226;-43
2022/04/29 01:20:27;;;;;;;7.27;3.33;;;;;;;3.18;80.54;98771.03;6178415;28;20319;-43
2022/04/29 01:23:32;;;;;;;3.73;3.40;;;;;;;3.12;80.73;98769.47;6186310;28;20258;-42
2022/04/29 01:26:36;;;;;;;4.73;3.13;;;;;;;3.11;80.93;98766.91;6186441;28;20285;-45
2022/04/29 01:29:43;;;;;;;3.53;3.00;;;;;;;3.05;80.86;98765.38;6184176;28;20609;-42
2022/04/29 01:32:46;;;;;;;5.33;2.80;;;;;;;3.02;80.87;98759.41;6184973;28;20403;-42
2022/04/29 01:35:49;;;;;;;5.97;3.50;;;;;;;2.97;81.09;98765.63;6183488;28;20238;-43
2022/04/29 01:38:53;;;;;;;4.53;3.20;;;;;;;2.95;81.36;98763.97;6184469;28;20238;-39
2022/04/29 01:41:55;;;;;;;3.60;3.23;;;;;;;2.91;81.64;98757.13;6182183;28;20262;-43
2022/04/29 01:44:58;;;;;;;5.60;3.27;;;;;;;2.89;81.49;98762.44;6182383;28;20246;-42
2022/04/29 01:48:02;;;;;;;4.23;2.93;;;;;;;2.85;81.21;98763.41;6181772;28;20602;-40
2022/04/29 01:51:30;;;;;;;4.40;3.20;;;;;;;2.80;81.85;98762.69;6207989;28;20249;-43
2022/04/29 01:54:32;;;;;;;4.33;3.23;;;;;;;2.80;81.74;98760.09;6195425;28;20233;-43
2022/04/29 01:57:37;;;;;;;3.20;2.77;;;;;;;2.79;81.72;98757.56;6206921;28;20236;-42
2022/04/29 02:00:41;;;;;;;3.53;3.20;;;;;;;2.75;81.94;98748.97;6200721;28;20238;-42
2022/04/29 02:03:43;;;;;;;4.83;3.23;;;;;;;2.70;81.81;98753.47;6182065;28;20239;-42
2022/04/29 02:06:46;;;;;;;3.80;3.30;;;;;;;2.69;81.97;98749.19;6181840;28;20329;-42
2022/04/29 02:09:49;;;;;;;5.23;3.63;;;;;;;2.65;82.05;98757.13;6214377;28;20776;-44
2022/04/29 02:12:51;;;;;;;3.37;3.07;;;;;;;2.62;82.18;98749.38;6181940;28;20249;-43
2022/04/29 02:15:59;;;;;;;3.40;3.07;;;;;;;2.57;81.96;98749.56;6183989;28;20234;-42
2022/04/29 02:19:02;;;;;;;3.90;3.30;;;;;;;2.55;82.31;98753.94;6181371;28;20234;-42
2022/04/29 02:22:08;;;;;;;3.97;3.57;;;;;;;2.52;82.29;98744.47;6183452;28;20283;-43
2022/04/29 02:25:12;;;;;;;6.80;4.80;;;;;;;2.49;82.44;98749.78;6186060;28;20248;-42
2022/04/29 02:28:15;;;;;;;6.20;4.33;;;;;;;2.46;82.15;98749.88;6181603;28;20282;-42
2022/04/29 02:31:17;;;;;;;4.73;3.63;;;;;;;2.44;82.44;98745.59;6181564;28;20324;-42
2022/04/29 02:34:20;;;;;;;4.00;3.33;;;;;;;2.42;82.58;98747.41;6181524;28;20243;-44
2022/04/29 02:37:23;;;;;;;5.27;3.77;;;;;;;2.35;82.58;98749.34;6183304;28;20241;-43
2022/04/29 02:40:26;;;;;;;3.77;3.20;;;;;;;2.33;82.96;98747.69;6180346;28;20891;-42
2022/04/29 02:43:28;;;;;;;4.73;3.43;;;;;;;2.29;82.80;98746.09;6183165;28;20462;-42
2022/04/29 02:46:32;;;;;;;5.07;3.30;;;;;;;2.26;83.17;98752.22;6184159;28;20279;-43
2022/04/29 02:49:36;;;;;;;4.00;3.27;;;;;;;2.23;82.86;98741.91;6181195;28;20325;-42
2022/04/29 02:52:39;;;;;;;4.37;3.97;;;;;;;2.21;83.08;98739.34;6183435;28;20235;-43
2022/04/29 02:55:42;;;;;;;5.30;4.13;;;;;;;2.19;83.36;98735.94;6192149;28;20718;-44
2022/04/29 02:58:54;;;;;;;5.80;3.63;;;;;;;2.16;83.56;98743.84;6181482;28;20236;-42
2022/04/29 04:01:46;;;;;;;5.37;4.10;;;;;;;1.87;84.32;98751.66;5080232;28;22604;-43
2022/04/29 04:04:48;;;;;;;6.20;4.47;;;;;;;1.86;84.50;98755.13;6191791;28;20267;-43
2022/04/29 04:07:51;;;;;;;5.13;3.90;;;;;;;1.85;84.17;98756.03;6201798;28;20224;-42
2022/04/29 04:11:06;;;;;;;4.80;4.00;;;;;;;1.83;84.40;98755.22;6202614;28;20237;-42
2022/04/29 04:14:09;;;;;;;4.57;4.00;;;;;;;1.84;84.66;98752.56;6197954;28;20228;-42
2022/04/29 04:17:18;;;;;;;6.37;3.60;;;;;;;1.88;84.48;98755.97;6192275;28;20310;-42
2022/04/29 04:20:22;;;;;;;5.90;3.90;;;;;;;1.93;84.77;98754.06;6204663;28;20243;-44
2022/04/29 04:23:37;;;;;;;5.93;4.30;;;;;;;1.95;84.60;98751.41;6184529;28;20233;-42
2022/04/29 04:26:41;;;;;;;4.40;3.73;;;;;;;1.97;84.18;98758.28;6153727;28;20229;-44
2022/04/29 04:29:48;;;;;;;5.43;3.97;;;;;;;1.99;84.62;98764.31;6178118;28;20241;-42
2022/04/29 04:32:50;;;;;;;5.87;4.20;;;;;;;2.04;84.75;98757.22;6177575;28;20714;-42
2022/04/29 04:35:53;;;;;;;5.40;4.03;;;;;;;2.05;84.60;98758.94;6180073;28;20592;-43
2022/04/29 04:38:55;;;;;;;5.73;4.50;;;;;;;2.10;84.52;98769.19;6179393;28;20240;-42
2022/04/29 04:41:57;;;;;;;5.00;4.33;;;;;;;2.11;84.47;98757.88;6177330;28;20237;-43
2022/04/29 04:45:10;;;;;;;6.67;4.10;;;;;;;2.15;84.71;98759.50;6201344;28;20721;-42
2022/04/29 04:48:24;;;;;;;5.67;4.50;;;;;;;2.25;84.84;98760.94;6177999;28;20714;-42
2022/04/29 04:51:44;;;;;;;5.43;4.73;;;;;;;2.35;84.76;98771.94;6178728;28;20230;-43
2022/04/29 04:54:50;;;;;;;5.27;4.37;;;;;;;2.42;84.75;98770.84;6194519;28;20267;-43
2022/04/29 04:57:53;;;;;;;5.87;4.20;;;;;;;2.44;84.61;98766.44;6177862;28;20311;-42
2022/04/29 05:00:55;;;;;;;4.47;3.57;;;;;;;2.48;84.90;98760.25;6178829;28;20233;-44
2022/04/29 05:04:27;;;;;;;4.97;3.97;;;;;;;2.52;84.64;98770.53;6190764;28;20230;-43
2022/04/29 05:07:29;;;;;;;8.67;4.47;;;;;;;2.55;84.64;98773.03;6185176;28;20244;-42
2022/04/29 05:10:32;;;;;;;4.63;4.10;;;;;;;2.59;84.77;98769.47;6183642;28;20352;-42
2022/04/29 05:13:34;;;;;;;4.80;4.23;;;;;;;2.67;84.68;98766.59;6183084;28;20250;-43
2022/04/29 05:16:38;;;;;;;4.50;4.10;;;;;;;2.75;84.71;98772.44;6183390;28;20315;-41
2022/04/29 05:20:12;;;;;;;4.83;4.37;;;;;;;2.84;84.65;98774.75;6184060;28;20728;-42
2022/04/29 05:23:17;;;;;;;3.90;3.50;;;;;;;2.92;84.94;98779.69;6188494;28;20234;-42
2022/04/29 05:26:40;;;;;;;5.53;4.10;;;;;;;3.03;84.52;98775.00;6199898;28;20612;-43
2022/04/29 05:30:03;;;;;;;7.43;4.10;;;;;;;3.11;84.44;98772.13;6183500;28;20702;-43
2022/04/29 05:33:29;;;;;;;6.17;3.97;;;;;;;3.22;84.70;98773.47;6208391;28;20226;-43
2022/04/29 05:36:50;;;;;;;5.93;4.30;;;;;;;3.31;84.92;98773.19;6210775;28;20708;-42
2022/04/29 05:43:33;;;;;;;5.20;4.23;;;;;;;3.55;84.79;98776.72;6206538;28;20245;-42
2022/04/29 05:46:36;;;;;;;5.27;4.27;;;;;;;3.65;84.12;98772.03;6206763;28;20283;-42
2022/04/29 05:49:39;;;;;;;4.60;4.20;;;;;;;3.74;84.54;98779.53;6207233;28;20226;-42
2022/04/29 05:52:42;;;;;;;3.90;3.50;;;;;;;3.81;83.92;98770.56;6205724;28;20592;-42
2022/04/29 05:55:45;;;;;;;6.53;4.10;;;;;;;3.91;83.97;98768.47;6201179;28;20247;-42
2022/04/29 05:58:53;;;;;;;4.87;3.83;;;;;;;4.02;83.84;98768.94;6204430;28;20231;-42
2022/04/29 06:02:13;;;;;;;4.77;3.87;;;;;;;4.11;83.62;98767.75;6213190;28;20800;-42
2022/04/29 06:05:29;;;;;;;5.33;4.50;;;;;;;4.23;83.70;98762.94;6205511;28;20552;-42
2022/04/29 06:08:32;;;;;;;3.87;3.47;;;;;;;4.31;84.57;98766.09;6205111;28;20228;-42
2022/04/29 06:11:34;;;;;;;6.03;4.77;;;;;;;4.50;84.96;98766.25;6205567;28;20282;-42
2022/04/29 06:14:38;;;;;;;5.07;4.10;;;;;;;4.63;84.87;98761.41;6206605;28;20737;-42
2022/04/29 06:17:59;;;;;;;5.10;4.10;;;;;;;4.79;85.16;98765.97;6206514;28;20234;-42
2022/04/29 06:21:32;;;;;;;5.77;4.30;;;;;;;4.95;85.13;98773.22;6184933;28;20231;-42
2022/04/29 06:24:46;;;;;;;5.03;4.43;;;;;;;5.15;85.15;98775.88;6191988;28;20453;-42
2022/04/29 06:28:08;;;;;;;7.87;4.03;;;;;;;5.34;85.13;98775.97;6206611;28;20235;-42
2022/04/29 06:31:12;;;;;;;8.27;4.57;;;;;;;5.55;84.42;98777.69;6193860;28;20387;-43
2022/04/29 06:34:34;;;;;;;5.13;4.27;;;;;;;5.81;84.01;98776.53;6182640;28;20291;-42
2022/04/29 06:37:37;;;;;;;4.90;4.20;;;;;;;6.09;84.49;98774.44;6181073;28;20221;-43
2022/04/29 06:41:02;;;;;;;4.87;4.00;;;;;;;6.42;83.08;98781.69;6158857;28;20238;-42
2022/04/29 06:44:09;;;;;;;5.03;4.53;;;;;;;6.77;82.61;98772.22;6212077;28;20235;-42
2022/04/29 06:47:30;;;;;;;5.43;3.90;;;;;;;7.18;80.81;98778.09;6181655;28;20320;-42
2022/04/29 06:50:55;;;;;;;5.03;3.83;;;;;;;7.64;79.40;98776.63;6181935;28;20244;-43
2022/04/29 06:54:17;;;;;;;4.97;3.30;;;;;;;8.14;76.65;98771.38;6194643;28;20575;-42
2022/04/29 06:57:24;;;;;;;4.50;3.00;;;;;;;8.61;75.54;98773.25;6200394;28;20230;-41
2022/04/29 07:00:27;;;;;;;4.23;3.50;;;;;;;9.02;72.26;98774.44;6180332;28;20231;-40
2022/04/29 07:03:30;;;;;;;3.40;2.90;;;;;;;9.49;72.02;98771.69;6182056;28;20272;-40
2022/04/29 07:06:33;;;;;;;3.00;2.70;;;;;;;9.94;70.46;98769.91;6179382;28;20272;-40
2022/04/29 07:09:36;;;;;;;6.93;2.90;;;;;;;10.43;66.39;98770.44;6180034;28;20235;-42
2022/04/29 07:13:19;;;;;;;4.20;2.63;;;;;;;10.94;64.20;98774.22;6187936;28;20633;-41
2022/04/29 07:16:21;;;;;;;3.57;2.60;;;;;;;11.32;62.84;98770.88;6178499;28;20347;-41
2022/04/29 07:19:44;;;;;;;3.77;2.33;;;;;;;11.80;61.72;98764.97;6182092;28;20229;-41
2022/04/29 07:23:02;;;;;;;2.53;2.30;;;;;;;12.34;59.30;98766.56;6181858;28;20263;-39
2022/04/29 07:26:04;;;;;;;4.07;3.67;;;;;;;12.61;52.16;98755.81;6179444;28;20317;-41
2022/04/29 07:29:08;;;;;;;3.83;3.10;;;;;;;13.09;52.41;98762.88;6181158;28;20323;-41
2022/04/29 07:32:20;;;;;;;4.50;2.77;;;;;;;13.46;51.61;98758.38;6179458;28;20267;-40
2022/04/29 07:42:25;;;;;;;4.67;2.90;;;;;;;14.66;44.91;98754.38;6204597;28;20571;-40
2022/04/29 07:45:28;;;;;;;2.87;2.20;;;;;;;15.20;46.74;98753.53;6204588;28;20274;-40
2022/04/29 07:49:04;;;;;;;2.37;2.17;;;;;;;15.75;44.72;98754.31;6224890;28;20235;-42
2022/04/29 07:52:07;;;;;;;5.10;2.87;;;;;;;15.94;41.87;98765.06;6202640;28;20597;-40
2022/04/29 07:55:10;;;;;;;4.53;3.20;;;;;;;16.01;40.71;98752.06;6209553;28;20387;-40
2022/04/29 07:58:14;;;;;;;2.40;2.20;;;;;;;16.24;42.36;98750.94;6204020;28;20251;-41
2022/04/29 08:01:16;;;;;;;3.80;2.57;;;;;;;16.63;41.26;98752.00;6207594;28;20653;-40
2022/04/29 08:04:21;;;;;;;2.47;2.03;;;;;;;17.14;42.00;98751.84;6203143;28;20281;-41
2022/04/29 08:07:23;;;;;;;5.40;3.73;;;;;;;16.63;36.81;98746.66;6203804;28;20584;-40
2022/04/29 08:10:30;;;;;;;4.83;3.23;;;;;;;16.57;37.50;98750.66;6202115;28;20240;-40
2022/04/29 08:13:34;;;;;;;3.60;3.20;;;;;;;16.90;35.67;98751.38;6199048;28;20250;-40
2022/04/29 08:17:26;;;;;;;5.60;3.03;;;;;;;17.36;38.42;98742.75;6200982;28;20327;-40
2022/04/29 08:20:28;;;;;;;3.10;2.73;;;;;;;17.37;37.36;98736.41;6185578;28;20229;-40
2022/04/29 08:23:31;;;;;;;3.73;3.13;;;;;;;17.61;37.07;98736.00;6178528;28;20371;-40
2022/04/29 08:26:33;;;;;;;4.77;3.13;;;;;;;18.00;38.17;98739.47;6178208;28;20227;-41
2022/04/29 08:29:36;;;;;;;4.63;3.33;;;;;;;17.82;35.75;98734.03;6177797;28;20293;-42
2022/04/29 08:32:39;;;;;;;4.10;2.93;;;;;;;18.11;35.78;98733.97;6179730;28;20233;-41
2022/04/29 08:35:48;;;;;;;2.50;2.20;;;;;;;18.80;37.30;98733.59;6179645;28;20816;-41
2022/04/29 08:38:51;;;;;;;5.43;3.37;;;;;;;19.06;34.33;98725.69;6178179;28;20751;-43
2022/04/29 08:41:54;;;;;;;4.53;3.37;;;;;;;18.54;35.34;98735.25;6180179;28;20237;-40
2022/04/29 08:44:59;;;;;;;5.77;3.73;;;;;;;18.15;33.17;98735.38;6179088;28;20236;-39
2022/04/29 08:48:10;;;;;;;4.47;4.10;;;;;;;18.17;34.51;98716.53;6178642;28;20402;-41
2022/04/29 08:51:14;;;;;;;5.57;4.33;;;;;;;18.69;33.91;98720.41;6202091;28;20268;-41
2022/04/29 09:01:02;;;;;;;5.77;4.70;;;;;;;19.43;32.20;98710.34;6178914;28;20651;-41
2022/04/29 09:04:04;;;;;;;6.17;4.30;;;;;;;19.50;31.71;98699.88;6181097;28;20244;-40
2022/04/29 09:07:06;;;;;;;5.90;3.37;;;;;;;19.47;31.96;98700.16;6179080;28;20241;-41
2022/04/29 09:10:09;;;;;;;6.80;3.70;;;;;;;19.33;31.98;98698.03;6179223;28;20229;-41
2022/04/29 09:13:17;;;;;;;3.97;3.20;;;;;;;19.06;32.72;98698.94;6178641;28;20285;-40
2022/04/29 09:16:19;;;;;;;5.10;2.90;;;;;;;19.95;32.26;98686.34;6178589;28;21072;-41
2022/04/29 09:19:30;;;;;;;4.57;2.97;;;;;;;20.55;32.90;98691.72;6179415;28;20245;-42
2022/04/29 09:22:33;;;;;;;4.07;3.43;;;;;;;20.28;31.01;98692.72;6179336;28;20593;-40
2022/04/29 09:25:46;;;;;;;3.63;3.30;;;;;;;19.86;31.28;98685.41;6183324;28;20233;-40
2022/04/29 09:29:19;;;;;;;6.23;3.27;;;;;;;19.53;31.12;98686.19;6177641;28;20237;-40
2022/04/29 09:32:50;;;;;;;3.73;3.23;;;;;;;18.68;32.39;98694.66;6178741;28;20240;-40
2022/04/29 09:36:28;;;;;;;4.67;3.00;;;;;;;18.72;33.32;98691.53;6223365;28;20228;-41
2022/04/29 09:39:50;;;;;;;6.60;3.40;;;;;;;18.37;33.62;98686.91;6187259;28;20243;-42
2022/04/29 09:42:59;;;;;;;3.60;2.87;;;;;;;18.14;33.91;98676.75;6195848;28;20273;-42
2022/04/29 09:46:22;;;;;;;4.67;3.17;;;;;;;17.92;34.26;98675.25;6179568;28;20233;-41
2022/04/29 09:49:28;;;;;;;3.47;2.60;;;;;;;17.76;35.77;98677.69;6183952;28;20333;-41
2022/04/29 09:52:31;;;;;;;3.80;2.80;;;;;;;17.42;35.67;98679.94;6182086;28;20339;-41
2022/04/29 09:55:33;;;;;;;3.43;2.63;;;;;;;17.34;35.03;98678.84;6169182;28;20248;-41
2022/04/29 09:58:35;;;;;;;2.13;1.93;;;;;;;17.40;36.00;98669.41;6182898;28;20228;-40
2022/04/29 10:01:53;;;;;;;4.00;1.97;;;;;;;17.77;40.00;98668.72;6182727;28;20237;-41
2022/04/29 10:04:56;;;;;;;6.53;3.63;;;;;;;17.68;35.17;98657.03;6184224;28;20229;-43
2022/04/29 10:08:02;;;;;;;2.87;2.57;;;;;;;17.60;36.77;98663.06;6181305;28;20362;-41
2022/04/29 10:11:05;;;;;;;4.87;3.50;;;;;;;17.64;34.95;98661.00;6182957;28;20225;-41
2022/04/29 10:14:13;;;;;;;3.93;3.27;;;;;;;18.80;33.56;98648.00;6181336;28;20319;-41
2022/04/29 10:21:15;;;;;;;6.60;3.83;;;;;;;20.56;29.36;98640.56;6195432;28;20277;-42
2022/04/29 10:24:18;;;;;;;5.87;3.30;;;;;;;20.39;30.94;98630.78;6182510;28;20213;-42
2022/04/29 10:27:21;;;;;;;4.10;3.70;;;;;;;20.54;29.29;98639.06;6182938;28;20229;-41
2022/04/29 10:30:32;;;;;;;5.50;3.90;;;;;;;19.09;30.52;98640.59;6182267;28;20241;-43
2022/04/29 10:33:36;;;;;;;5.87;3.70;;;;;;;17.61;34.30;98632.72;6187558;28;20229;-40
2022/04/29 10:36:47;;;;;;;3.67;3.00;;;;;;;17.47;35.00;98643.03;6179944;28;20229;-42
2022/04/29 10:40:11;;;;;;;4.27;3.87;;;;;;;17.09;33.91;98639.38;6182692;28;20229;-40
2022/04/29 10:43:20;;;;;;;3.47;2.87;;;;;;;17.74;33.22;98636.94;6181636;28;20221;-40
2022/04/29 10:46:35;;;;;;;3.87;3.47;;;;;;;18.93;31.88;98632.44;6182336;28;20236;-41
2022/04/29 10:50:30;;;;;;;3.33;3.00;;;;;;;20.43;29.21;98620.59;6182365;28;20240;-40
2022/04/29 10:53:57;;;;;;;3.20;2.70;;;;;;;21.39;27.47;98615.56;6181940;28;20222;-40
2022/04/29 10:57:39;;;;;;;3.70;2.63;;;;;;;22.28;28.08;98604.63;6175802;28;20674;-42
2022/04/29 11:01:12;;;;;;;5.87;3.10;;;;;;;22.70;26.07;98604.25;6204700;28;20248;-42
2022/04/29 11:04:15;;;;;;;4.00;2.40;;;;;;;23.15;25.79;98592.72;6200679;28;20244;-42
2022/04/29 11:07:44;;;;;;;3.43;2.70;;;;;;;22.89;25.44;98597.59;6203191;28;20346;-43
2022/04/29 11:10:58;;;;;;;4.33;2.50;;;;;;;22.34;27.76;98590.50;6203889;28;20308;-41
2022/04/29 11:14:06;;;;;;;5.60;2.10;;;;;;;22.03;29.12;98596.69;6199031;28;20645;-43
2022/04/29 11:17:34;;;;;;;4.10;2.60;;;;;;;21.20;29.03;98592.56;6204404;28;20241;-43
2022/04/29 11:20:38;;;;;;;3.37;2.50;;;;;;;19.88;29.69;98583.44;6183996;28;20234;-42
2022/04/29 11:27:13;;;;;;;3.60;2.60;;;;;;;19.85;30.80;98586.47;6179169;28;20287;-43
2022/04/29 11:30:15;;;;;;;3.30;2.97;;;;;;;20.55;30.30;98581.75;6195122;28;20295;-42
2022/04/29 11:33:27;;;;;;;2.13;1.93;;;;;;;20.81;27.69;98573.56;6181465;28;20244;-41
2022/04/29 11:36:29;;;;;;;2.67;2.40;;;;;;;21.59;28.59;98565.84;6179538;28;20232;-44
2022/04/29 11:39:35;;;;;;;3.50;2.97;;;;;;;22.24;25.66;98574.59;6180857;28;20241;-41
2022/04/29 11:42:48;;;;;;;4.13;2.80;;;;;;;21.31;26.53;98562.72;6181572;28;20609;-41
2022/04/29 11:46:20;;;;;;;4.10;2.87;;;;;;;20.15;30.38;98559.13;6179931;28;20253;-42
2022/04/29 11:49:29;;;;;;;4.67;2.67;;;;;;;20.17;28.23;98553.59;6181890;28;20739;-43
2022/04/29 11:52:33;;;;;;;3.57;2.50;;;;;;;20.19;29.49;98549.75;6180478;28;20237;-41
2022/04/29 11:55:36;;;;;;;3.93;2.93;;;;;;;19.23;30.77;98555.41;6162316;28;21003;-41
2022/04/29 11:58:39;;;;;;;4.87;2.73;;;;;;;19.45;30.72;98554.91;6180586;28;20221;-43
2022/04/29 12:01:50;;;;;;;3.00;2.20;;;;;;;19.48;31.63;98549.25;6180379;28;20264;-41
2022/04/29 12:04:59;;;;;;;2.80;2.43;;;;;;;19.11;30.03;98550.31;6178461;28;20241;-41
2022/04/29 12:08:03;;;;;;;2.90;2.50;;;;;;;19.57;30.93;98542.09;6180431;28;20303;-42
2022/04/29 12:11:31;;;;;;;2.93;2.57;;;;;;;21.12;28.39;98536.19;6178109;28;20241;-42
2022/04/29 12:14:36;;;;;;;3.80;2.73;;;;;;;22.32;26.90;98530.66;6176313;28;20657;-42
2022/04/29 12:17:40;;;;;;;3.23;2.43;;;;;;;23.21;26.42;98527.34;6181231;28;20740;-41
2022/04/29 12:20:44;;;;;;;3.80;2.47;;;;;;;23.60;26.23;98518.22;6201233;28;20247;-40
2022/04/29 12:23:47;;;;;;;4.00;2.50;;;;;;;22.56;25.85;98525.13;6181831;28;20241;-41
2022/04/29 12:27:07;;;;;;;3.00;2.47;;;;;;;22.62;27.01;98519.03;6179390;28;20225;-42
2022/04/29 12:37:11;;;;;;;4.13;3.10;;;;;;;22.04;25.75;98520.41;6204319;28;20236;-42
2022/04/29 12:40:31;;;;;;;4.00;2.93;;;;;;;21.35;26.52;98504.97;6203049;28;20243;-43
2022/04/29 12:43:41;;;;;;;3.57;2.57;;;;;;;21.22;27.30;98504.66;6203622;28;20227;-43
2022/04/29 12:46:44;;;;;;;2.83;2.60;;;;;;;20.85;27.70;98492.59;6204065;28;20712;-41
2022/04/29 12:49:46;;;;;;;17.33;15.50;;;;;;;20.76;28.49;98493.59;6202992;28;20398;-42
2022/04/29 12:53:09;;;;;;;2.53;2.30;;;;;;;20.83;28.39;98488.38;6200669;28;20273;-41
2022/04/29 12:56:22;;;;;;;6.27;3.00;;;;;;;20.35;28.65;98482.00;6199969;28;20240;-43
2022/04/29 12:59:25;;;;;;;5.27;2.77;;;;;;;20.53;27.76;98485.34;6203542;28;20866;-42
2022/04/29 13:02:27;;;;;;;2.40;2.20;;;;;;;20.84;28.18;98474.81;6202634;28;20247;-44
2022/04/29 13:05:32;;;;;;;4.10;3.10;;;;;;;;;;6201572;28;20271;-41
2022/04/29 13:08:39;;;;;;;5.37;3.27;;;;;;;22.69;27.19;98460.78;6203650;28;20299;-42
2022/04/29 13:11:43;;;;;;;7.10;3.87;;;;;;;22.97;25.28;98461.06;6202353;28;20240;-42
2022/04/29 13:17:27;;;;;;;4.70;3.80;;;;;;;22.53;26.85;98457.41;6256961;27;20886;-68
2022/04/29 13:20:29;;;;;;;3.90;3.60;;;;;;;22.52;26.38;98456.56;6246215;28;20245;-68
2022/04/29 13:23:33;;;;;;;3.70;3.33;;;;;;;23.10;25.99;98438.91;6247947;28;20253;-68
2022/04/29 13:26:41;;;;;;;3.73;3.23;;;;;;;24.45;26.19;98441.13;6224284;28;20232;-68
2022/04/29 13:32:49;;;;;;;4.70;4.23;;;;;;;23.62;24.26;98440.72;6251300;27;20821;-68
2022/04/29 13:35:52;;;;;;;5.47;3.30;;;;;;;24.81;23.89;98437.47;6249475;28;20242;-68
2022/04/29 13:38:55;;;;;;;5.03;3.57;;;;;;;24.95;22.90;98425.81;6248677;28;20246;-68
2022/04/29 13:42:01;;;;;;;5.53;3.23;;;;;;;25.12;23.16;98419.06;6223474;28;20238;-68
2022/04/29 13:45:05;;;;;;;4.30;3.40;;;;;;;24.36;24.03;98420.66;6249005;28;20206;-67
2022/04/29 13:48:08;;;;;;;5.73;3.00;;;;;;;22.61;25.82;98433.09;6247806;28;20219;-68
2022/04/29 13:51:10;;;;;;;3.37;2.80;;;;;;;21.92;25.91;98434.91;6250073;28;20243;-68
2022/04/29 13:54:12;;;;;;;3.60;2.60;;;;;;;24.14;22.94;98409.00;6248319;28;20229;-68
2022/04/29 13:57:14;;;;;;;3.83;2.97;;;;;;;24.84;21.85;98423.59;6247421;28;20211;-68
2022/04/29 14:00:17;;;;;;;2.93;2.63;;;;;;;26.86;20.33;98412.19;6248662;28;20233;-65
2022/04/29 14:03:22;;;;;;;6.37;2.90;;;;;;;27.50;20.61;98405.03;6247986;28;20211;-66
2022/04/29 14:06:25;;;;;;;3.80;2.33;;;;;;;29.35;18.22;98401.97;6248598;28;20680;-64
2022/04/29 14:09:28;;;;;;;3.60;3.00;;;;;;;29.23;17.82;98395.63;6248566;28;20592;-64
2022/04/29 14:12:30;;;;;;;4.30;2.60;;;;;;;25.20;22.50;98407.25;6253933;28;20242;-66
2022/04/29 14:15:33;;;;;;;3.40;2.80;;;;;;;23.40;25.06;98402.88;6253700;28;20709;-66
2022/04/29 14:18:35;;;;;;;3.13;2.37;;;;;;;25.80;22.72;98403.84;6232963;28;20602;-68
2022/04/29 14:21:37;;;;;;;3.07;2.20;;;;;;;29.10;18.21;98397.63;6239135;28;20230;-68
2022/04/29 14:24:41;;;;;;;3.07;2.50;;;;;;;26.49;20.87;98383.84;6247129;28;20292;-68
2022/04/29 14:27:45;;;;;;;2.83;2.60;;;;;;;29.80;17.68;98398.13;6248196;28;20220;-68
2022/04/29 14:30:47;;;;;;;3.47;2.80;;;;;;;30.80;15.95;98394.63;6247745;28;20253;-68
2022/04/29 14:33:50;;;;;;;3.23;2.73;;;;;;;31.20;15.18;98383.06;6247945;28;20211;-68
2022/04/29 14:36:52;;;;;;;4.10;2.87;;;;;;;31.77;14.87;98375.84;6246958;28;20227;-68
2022/04/29 14:39:55;;;;;;;5.30;3.27;;;;;;;31.18;15.68;98385.19;6247489;28;20719;-68
2022/04/29 14:42:58;;;;;;;3.43;3.10;;;;;;;30.80;15.92;98380.16;6237792;28;20606;-68
2022/04/29 14:46:00;;;;;;;3.73;3.10;;;;;;;30.58;16.57;98387.25;6231978;28;20717;-68
2022/04/29 14:49:03;;;;;;;3.27;2.40;;;;;;;30.09;17.31;98390.03;6230291;28;20268;-69
2022/04/29 14:52:07;;;;;;;3.50;2.57;;;;;;;30.25;16.59;98383.09;6219984;28;20236;-68
2022/04/29 14:55:11;;;;;;;4.25;2.80;;;;;;;29.05;18.28;98373.81;6213264;28;20513;-67
2022/04/29 14:58:14;;;;;;;3.97;3.00;;;;;;;27.06;18.85;98375.94;6230711;28;20220;-68
2022/04/29 15:01:17;;;;;;;5.17;3.13;;;;;;;26.58;19.85;98374.47;6229051;28;20309;-67
2022/04/29 15:04:20;;;;;;;4.80;2.87;;;;;;;27.36;18.44;98361.88;6230194;28;20837;-67
2022/04/29 15:07:24;;;;;;;3.93;2.67;;;;;;;27.60;19.04;98366.63;6230868;28;20314;-68
2022/04/29 15:17:25;;;;;;;5.07;2.60;;;;;;;26.08;20.21;98360.44;6231573;28;20225;-68
2022/04/29 15:20:27;;;;;;;3.93;2.17;;;;;;;25.67;20.89;98357.81;6229037;28;20236;-68
2022/04/29 15:23:30;;;;;;;3.27;2.07;;;;;;;25.05;22.57;98363.31;6220221;28;20239;-68
2022/04/29 15:26:33;;;;;;;2.27;2.07;;;;;;;24.16;22.33;98360.25;6214872;28;20227;-68
2022/04/29 15:29:35;;;;;;;2.37;2.03;;;;;;;23.32;22.92;98359.88;6229864;28;20358;-67
2022/04/29 15:32:38;;;;;;;3.93;2.40;;;;;;;23.91;22.15;98362.50;6228629;28;20232;-68
2022/04/29 15:35:42;;;;;;;3.00;2.40;;;;;;;23.63;22.76;98364.25;6230406;28;20244;-68
2022/04/29 15:38:44;;;;;;;2.37;2.17;;;;;;;23.11;23.41;98360.63;6229709;28;20293;-67
2022/04/29 15:41:48;;;;;;;6.07;2.67;;;;;;;22.46;24.02;98363.09;6229641;28;20593;-67
2022/04/29 15:44:51;;;;;;;2.70;2.10;;;;;;;21.58;25.50;98363.53;6229788;28;20623;-67
2022/04/29 15:47:54;;;;;;;3.63;2.00;;;;;;;21.98;25.41;98353.56;6229462;28;20336;-65
2022/04/29 15:50:57;;;;;;;3.63;1.80;;;;;;;22.44;26.71;98359.78;6230808;28;20278;-68
2022/04/29 15:53:59;;;;;;;3.40;2.13;;;;;;;21.52;28.78;98366.09;6223048;28;20227;-68
2022/04/29 15:57:03;;;;;;;2.20;1.87;;;;;;;20.71;29.57;98353.75;6229218;28;20220;-67
2022/04/29 16:00:06;;;;;;;3.00;2.10;;;;;;;20.00;30.87;98361.59;6229689;28;20323;-68
2022/04/29 16:03:17;;;;;;;2.63;1.40;;;;;;;19.44;32.47;98360.47;6229263;28;20295;-67
2022/04/29 16:06:21;;;;;;;2.23;1.50;;;;;;;19.38;33.90;98361.09;6229207;28;20212;-67
2022/04/29 16:09:24;;;;;;;3.23;1.83;;;;;;;19.17;34.36;98358.81;6228911;28;20247;-68
2022/04/29 16:12:26;;;;;;;2.93;1.57;;;;;;;18.86;36.10;98349.66;6228725;28;20243;-67
2022/04/29 16:15:28;;;;;;;2.93;1.83;;;;;;;18.65;35.35;98345.53;6229259;28;20247;-67
2022/04/29 16:21:52;;;;;;;5.53;2.10;;;;;;;17.94;36.66;98350.13;6228808;28;20231;-67
2022/04/29 16:28:17;;;;;;;1.50;1.40;;;;;;;17.41;39.35;98355.38;6229027;28;20263;-67
2022/04/29 16:31:24;;;;;;;2.30;1.60;;;;;;;17.28;41.21;98353.88;6227992;28;20235;-68
2022/04/29 16:34:29;;;;;;;1.37;1.20;;;;;;;17.15;41.49;98345.41;6227863;28;20238;-67
2022/04/29 16:37:31;;;;;;;4.03;1.80;;;;;;;17.07;42.51;98352.47;6227344;28;20582;-67